Airfield :
LOGIN :

Register | Disclaimer

   EN    FR    IT 

 










Legend :    VFR   Marginal VFR   IFR   Intensive IFR   Very Intensive IFR
Visi :
Ceiling :
>= 8 km
>= 3000ft
5 to 8 km
1000 to 3000 ft
1500m to 5 km
500 to 1000 ft
800 to 1500m
200 to 500 ft
< 800m
< 200 ft
Symbols :   Thunderstorms  Fog  Heavy snow  Heavy precipitations  Wind > 20 kt
SIGMETs :     Misc.  Thunderstorms  Icing  Turbulence  Mountain Waves  Volcanic Ashes






- Airport Elevation : 14 ft
- IATA code : BRE


EDDW - Bremen Neuenland

CURRENT METAR :
  • 242220Z 27009KT 9999 FEW015 SCT030 12/10 Q1027

EXPIRED METARs :
  • 242150Z 27009KT 9999 BKN015 12/10 Q1027
  • 242120Z 27008KT 9999 FEW025 12/10 Q1027
  • 242050Z 28009KT 9999 SCT030 SCT045 12/10 Q1027 NOSIG
  • 242020Z 27009KT 9999 FEW025 12/09 Q1026 NOSIG
  • 241950Z 28009KT 9999 FEW025 13/09 Q1026 NOSIG

TAF TAF EDDW
Valid from the 24 at 18:00 until the 25 at 18:00 UTC


241700Z 2418/2518 29015G25KT 9999 SCT030
BECMG 2418/2420 28010KT
TEMPO 2500/2506 BKN013
TEMPO 2506/2515 30015G25KT



MET'MAP, your aeronautical weather chart ! - Copyright ORBIFLY December 2007 - Disclaimer

ORBIFLY MET'MAP TEAM :

Programming & Development : Alexandra Zaïnal
Concept & original design : Baudouin d'Aumeries
Assistance for programming : Marc-Olivier Méhu
Technical & hardware support : Manuel Goepfert

Contact : metmap@orbifly.com




SOURCES & CREDITS :

   NOAA